createdAt,value
2019-04-07T00:02:33.130Z,9.00
2019-04-07T00:05:13.723Z,9.06
2019-04-07T00:07:47.238Z,9.07
2019-04-07T00:10:27.150Z,9.06
2019-04-07T00:13:03.045Z,9.03
2019-04-07T00:15:38.987Z,8.98
2019-04-07T00:18:14.966Z,9.00
2019-04-07T00:20:50.810Z,9.03
2019-04-07T00:23:26.704Z,9.10
2019-04-07T00:26:02.824Z,9.10
2019-04-07T00:28:38.679Z,9.09
2019-04-07T00:31:15.667Z,9.08
2019-04-07T00:33:51.654Z,9.02
2019-04-07T00:36:27.891Z,8.96
2019-04-07T00:39:05.952Z,8.92
2019-04-07T00:41:41.849Z,8.88
2019-04-07T00:44:17.692Z,8.81
2019-04-07T00:46:54.043Z,8.75
2019-04-07T00:49:29.922Z,8.71
2019-04-07T00:52:07.419Z,8.55
2019-04-07T00:54:43.482Z,8.55
2019-04-07T00:57:19.874Z,8.53
2019-04-07T00:59:56.116Z,8.41
2019-04-07T01:02:32.285Z,8.40
2019-04-07T01:05:09.112Z,8.39
2019-04-07T01:07:45.215Z,8.36
2019-04-07T01:10:21.643Z,8.36
2019-04-07T01:12:57.627Z,8.38
2019-04-07T01:15:33.972Z,8.37
2019-04-07T01:18:10.008Z,8.41
2019-04-07T01:20:46.723Z,8.44
2019-04-07T01:23:23.495Z,8.49
2019-04-07T01:25:59.444Z,8.57
2019-04-07T01:28:35.424Z,8.61
2019-04-07T01:31:11.360Z,8.69
2019-04-07T01:33:47.786Z,8.68
2019-04-07T01:36:23.813Z,8.63
2019-04-07T01:39:00.026Z,8.53
2019-04-07T01:41:37.438Z,8.38
2019-04-07T01:44:18.055Z,8.26
2019-04-07T01:46:55.980Z,8.22
2019-04-07T01:49:33.855Z,8.19
2019-04-07T01:52:26.452Z,8.05
2019-04-07T01:55:12.977Z,8.01
2019-04-07T01:57:56.586Z,8.01
2019-04-07T02:00:40.395Z,7.98
2019-04-07T02:03:20.597Z,7.93
2019-04-07T02:06:01.634Z,7.87
2019-04-07T02:08:40.391Z,7.82
2019-04-07T02:11:24.039Z,7.71
2019-04-07T02:14:03.771Z,7.68
2019-04-07T02:16:41.165Z,7.63
2019-04-07T02:19:21.630Z,7.63
2019-04-07T02:22:04.952Z,7.57
2019-04-07T02:24:42.342Z,7.54
2019-04-07T02:27:25.685Z,7.45
2019-04-07T02:30:19.795Z,7.39
2019-04-07T02:33:06.461Z,7.30
2019-04-07T02:35:47.026Z,7.23
2019-04-07T02:38:24.515Z,7.16
2019-04-07T02:41:01.919Z,7.08
2019-04-07T02:43:51.714Z,7.03
2019-04-07T02:46:40.964Z,7.03
2019-04-07T02:49:21.662Z,6.98
2019-04-07T02:52:14.685Z,6.93
2019-04-07T02:55:01.088Z,6.90
2019-04-07T02:57:42.188Z,6.90
2019-04-07T03:00:20.467Z,6.93
2019-04-07T03:03:01.639Z,6.99
2019-04-07T03:05:45.586Z,7.00
2019-04-07T03:08:32.304Z,6.96
2019-04-07T03:11:29.067Z,7.01
2019-04-07T03:14:09.530Z,7.07
2019-04-07T03:16:52.819Z,7.05
2019-04-07T03:19:33.381Z,7.07
2019-04-07T03:22:13.462Z,7.02
2019-04-07T03:25:03.699Z,6.99
2019-04-07T03:27:56.014Z,6.99
2019-04-07T03:30:40.906Z,6.99
2019-04-07T03:33:21.751Z,6.98
2019-04-07T03:36:01.961Z,6.99
2019-04-07T03:38:42.919Z,6.99
2019-04-07T03:41:20.311Z,6.97
2019-04-07T03:43:59.284Z,7.01
2019-04-07T03:46:37.491Z,6.98
2019-04-07T03:49:20.908Z,6.89
2019-04-07T03:52:07.153Z,6.85
2019-04-07T03:55:01.332Z,6.82
2019-04-07T03:57:46.357Z,6.77
2019-04-07T04:01:11.061Z,6.72
2019-04-07T04:03:57.167Z,6.71
2019-04-07T04:06:47.234Z,6.70
2019-04-07T04:09:42.523Z,6.77
2019-04-07T04:12:21.125Z,6.84
2019-04-07T04:15:00.204Z,6.86
2019-04-07T04:17:37.029Z,6.84
2019-04-07T04:20:14.762Z,6.90
2019-04-07T04:22:50.836Z,6.93
2019-04-07T04:25:27.430Z,6.89
2019-04-07T04:28:04.738Z,6.83
2019-04-07T04:30:41.972Z,6.86
2019-04-07T04:33:18.114Z,6.97
2019-04-07T04:35:54.009Z,7.13
2019-04-07T04:38:30.056Z,7.14
2019-04-07T04:41:06.866Z,7.11
2019-04-07T04:43:42.733Z,7.08
2019-04-07T04:46:18.710Z,7.10
2019-04-07T04:48:55.433Z,7.11
2019-04-07T04:51:36.317Z,7.13
2019-04-07T04:54:08.835Z,7.19
2019-04-07T04:56:44.888Z,7.19
2019-04-07T04:59:21.651Z,7.23
2019-04-07T05:01:57.535Z,7.24
2019-04-07T05:04:34.090Z,7.29
2019-04-07T05:07:10.179Z,7.30
2019-04-07T05:09:51.204Z,7.37
2019-04-07T05:12:24.352Z,7.37
2019-04-07T05:15:00.381Z,7.44
2019-04-07T05:17:36.899Z,7.53
2019-04-07T05:20:13.542Z,7.63
2019-04-07T05:22:49.516Z,7.70
2019-04-07T05:25:25.262Z,7.77
2019-04-07T05:28:01.207Z,7.88
2019-04-07T05:30:37.944Z,7.99
2019-04-07T05:33:14.130Z,8.12
2019-04-07T05:35:50.343Z,8.19
2019-04-07T05:38:26.515Z,8.21
2019-04-07T05:41:02.964Z,8.31
2019-04-07T05:43:38.748Z,8.42
2019-04-07T05:46:14.989Z,8.55
2019-04-07T05:48:52.611Z,8.62
2019-04-07T05:51:30.096Z,8.69
2019-04-07T05:54:07.153Z,8.86
2019-04-07T05:56:43.725Z,9.00
2019-04-07T05:59:19.915Z,9.01
2019-04-07T06:02:01.253Z,9.04
2019-04-07T06:04:33.844Z,9.13
2019-04-07T06:07:10.232Z,9.13
2019-04-07T06:09:50.082Z,9.05
2019-04-07T06:12:23.706Z,9.17
2019-04-07T06:14:59.633Z,9.26
2019-04-07T06:17:35.799Z,9.29
2019-04-07T06:20:15.034Z,9.28
2019-04-07T06:22:52.704Z,9.36
2019-04-07T06:25:27.334Z,9.41
2019-04-07T06:28:03.357Z,9.45
2019-04-07T06:30:39.524Z,9.51
2019-04-07T06:33:15.624Z,9.54
2019-04-07T06:35:54.948Z,9.63
2019-04-07T06:38:34.218Z,9.69
2019-04-07T06:41:08.212Z,9.77
2019-04-07T06:43:44.167Z,9.88
2019-04-07T06:46:27.599Z,10.04
2019-04-07T06:49:18.444Z,10.11
2019-04-07T06:51:55.780Z,10.23
2019-04-07T06:54:50.075Z,10.43
2019-04-07T06:57:35.146Z,10.46
2019-04-07T07:00:25.711Z,10.67
2019-04-07T07:03:07.531Z,10.81
2019-04-07T07:05:51.501Z,10.94
2019-04-07T07:08:47.454Z,11.02
2019-04-07T07:11:44.100Z,11.20
2019-04-07T07:14:32.932Z,11.37
2019-04-07T07:17:07.499Z,11.52
2019-04-07T07:20:03.588Z,11.69
2019-04-07T07:22:47.897Z,11.70
2019-04-07T07:25:23.739Z,11.85
2019-04-07T07:27:59.996Z,12.03
2019-04-07T07:30:35.965Z,12.15
2019-04-07T07:33:13.588Z,12.15
2019-04-07T07:35:49.486Z,12.27
2019-04-07T07:38:27.006Z,12.38
2019-04-07T07:41:04.477Z,12.49
2019-04-07T07:43:41.422Z,12.52
2019-04-07T07:46:20.565Z,12.55
2019-04-07T07:48:58.788Z,12.64
2019-04-07T07:51:32.482Z,12.71
2019-04-07T07:54:09.947Z,12.84
2019-04-07T07:56:49.391Z,12.86
2019-04-07T07:59:24.129Z,12.95
2019-04-07T08:02:00.041Z,13.00
2019-04-07T08:04:36.575Z,13.06
2019-04-07T08:07:15.258Z,13.02
2019-04-07T08:09:53.791Z,13.17
2019-04-07T08:12:28.130Z,13.33
2019-04-07T08:15:04.958Z,13.39
2019-04-07T08:17:40.987Z,13.53
2019-04-07T08:20:18.594Z,13.64
2019-04-07T08:22:54.958Z,13.64
2019-04-07T08:25:31.013Z,13.64
2019-04-07T08:28:08.192Z,13.60
2019-04-07T08:30:47.501Z,13.53
2019-04-07T08:33:22.580Z,13.49
2019-04-07T08:35:58.938Z,13.57
2019-04-07T08:38:35.396Z,13.60
2019-04-07T08:41:12.465Z,13.57
2019-04-07T08:43:53.222Z,13.62
2019-04-07T08:46:30.666Z,13.71
2019-04-07T08:49:05.503Z,13.90
2019-04-07T08:51:41.741Z,13.94
2019-04-07T08:54:18.436Z,14.10
2019-04-07T08:56:56.895Z,14.23
2019-04-07T08:59:32.486Z,14.38
2019-04-07T09:02:08.672Z,14.54
2019-04-07T09:04:49.757Z,14.49
2019-04-07T09:07:23.629Z,14.52
2019-04-07T09:09:59.884Z,14.58
2019-04-07T09:12:36.066Z,14.65
2019-04-07T09:15:13.719Z,14.64
2019-04-07T09:17:51.157Z,14.57
2019-04-07T09:20:29.219Z,14.56
2019-04-07T09:23:07.111Z,14.59
2019-04-07T09:25:44.823Z,14.65
2019-04-07T09:28:38.907Z,14.77
2019-04-07T09:31:19.644Z,14.90
2019-04-07T09:34:00.121Z,14.97
2019-04-07T09:36:40.740Z,14.96
2019-04-07T09:39:33.995Z,15.06
2019-04-07T09:42:14.897Z,15.23
2019-04-07T09:45:10.775Z,15.24
2019-04-07T09:47:48.684Z,15.24
2019-04-07T09:50:35.374Z,15.32
2019-04-07T09:53:29.078Z,15.34
2019-04-07T09:56:08.869Z,15.36
2019-04-07T09:58:58.242Z,15.24
2019-04-07T10:01:47.592Z,15.24
2019-04-07T10:04:25.648Z,15.28
2019-04-07T10:07:03.656Z,15.29
2019-04-07T10:09:50.207Z,15.32
2019-04-07T10:12:29.932Z,15.38
2019-04-07T10:15:23.280Z,15.51
2019-04-07T10:18:06.724Z,15.65
2019-04-07T10:20:59.755Z,15.66
2019-04-07T10:23:37.538Z,15.57
2019-04-07T10:26:21.002Z,15.58
2019-04-07T10:29:04.608Z,15.68
2019-04-07T10:31:49.326Z,15.74
2019-04-07T10:34:37.483Z,15.82
2019-04-07T10:37:24.410Z,15.76
2019-04-07T10:40:03.148Z,15.75
2019-04-07T10:42:50.194Z,15.72
2019-04-07T10:45:45.964Z,15.74
2019-04-07T10:48:35.435Z,15.79
2019-04-07T10:51:29.321Z,15.73
2019-04-07T10:54:22.186Z,15.70
2019-04-07T10:56:59.889Z,15.64
2019-04-07T10:59:40.427Z,15.61
2019-04-07T11:02:27.546Z,15.51
2019-04-07T11:05:10.710Z,15.53
2019-04-07T11:07:48.305Z,15.60
2019-04-07T11:10:39.367Z,15.75
2019-04-07T11:13:20.926Z,16.06
2019-04-07T11:16:03.894Z,16.34
2019-04-07T11:18:47.244Z,16.56
2019-04-07T11:21:33.865Z,16.75
2019-04-07T11:24:14.167Z,16.86
2019-04-07T11:27:03.515Z,16.98
2019-04-07T11:29:43.867Z,17.05
2019-04-07T11:32:30.476Z,17.08
2019-04-07T11:35:17.624Z,17.09
2019-04-07T11:38:06.882Z,17.11
2019-04-07T11:41:00.435Z,17.02
2019-04-07T11:43:54.551Z,17.00
2019-04-07T11:46:31.964Z,16.95
2019-04-07T11:49:16.055Z,16.91
2019-04-07T11:51:53.607Z,16.85
2019-04-07T11:54:47.881Z,16.87
2019-04-07T11:57:31.233Z,16.84
2019-04-07T12:00:22.597Z,16.81
2019-04-07T12:03:00.831Z,16.84
2019-04-07T12:05:38.137Z,16.81
2019-04-07T12:08:18.608Z,16.82
2019-04-07T12:11:07.856Z,16.81
2019-04-07T12:14:01.202Z,16.91
2019-04-07T12:16:39.098Z,17.05
2019-04-07T12:19:26.156Z,17.26
2019-04-07T12:22:14.116Z,17.38
2019-04-07T12:25:07.860Z,17.44
2019-04-07T12:27:46.231Z,17.49
2019-04-07T12:30:28.405Z,17.66
2019-04-07T12:33:09.885Z,17.69
2019-04-07T12:36:03.501Z,17.68
2019-04-07T12:38:43.245Z,17.54
2019-04-07T12:41:22.101Z,17.45
2019-04-07T12:44:08.035Z,17.46
2019-04-07T12:46:48.403Z,17.57
2019-04-07T12:49:25.869Z,17.76
2019-04-07T12:52:18.159Z,17.84
2019-04-07T12:55:15.392Z,17.88
2019-04-07T12:57:50.585Z,17.93
2019-04-07T13:00:52.873Z,18.03
2019-04-07T13:03:32.209Z,18.16
2019-04-07T13:06:25.567Z,18.23
2019-04-07T13:09:15.114Z,18.15
2019-04-07T13:11:55.904Z,18.19
2019-04-07T13:14:51.238Z,18.17
2019-04-07T13:17:37.568Z,17.99
2019-04-07T13:20:18.081Z,17.85
2019-04-07T13:23:09.773Z,17.83
2019-04-07T13:25:47.410Z,17.83
2019-04-07T13:28:27.875Z,17.84
2019-04-07T13:31:11.314Z,17.94
2019-04-07T13:34:04.298Z,17.88
2019-04-07T13:36:45.153Z,17.72
2019-04-07T13:39:35.937Z,17.56
2019-04-07T13:42:20.797Z,17.42
2019-04-07T13:45:04.526Z,17.43
2019-04-07T13:48:00.324Z,17.51
2019-04-07T13:50:38.261Z,17.70
2019-04-07T13:53:26.334Z,17.85
2019-04-07T13:56:19.456Z,18.03
2019-04-07T13:59:05.979Z,18.16
2019-04-07T14:01:45.115Z,18.23
2019-04-07T14:04:22.641Z,18.37
2019-04-07T14:07:00.013Z,18.45
2019-04-07T14:09:37.558Z,18.45
2019-04-07T14:12:15.476Z,18.26
2019-04-07T14:15:09.372Z,18.08
2019-04-07T14:17:47.023Z,18.06
2019-04-07T14:20:33.523Z,18.06
2019-04-07T14:23:11.044Z,17.98
2019-04-07T14:25:52.944Z,17.99
2019-04-07T14:28:29.806Z,18.04
2019-04-07T14:31:07.587Z,18.12
2019-04-07T14:33:45.018Z,18.26
2019-04-07T14:36:28.443Z,18.29
2019-04-07T14:39:23.116Z,18.32
2019-04-07T14:42:17.614Z,18.41
2019-04-07T14:44:55.560Z,18.28
2019-04-07T14:47:36.074Z,18.04
2019-04-07T14:50:32.090Z,17.98
2019-04-07T14:53:09.761Z,18.00
2019-04-07T14:55:53.428Z,17.92
2019-04-07T14:58:36.986Z,17.81
2019-04-07T15:01:30.743Z,17.72
2019-04-07T15:04:06.695Z,17.72
2019-04-07T15:06:42.541Z,17.79
2019-04-07T15:09:23.986Z,17.81
2019-04-07T15:12:02.784Z,17.88
2019-04-07T15:14:38.927Z,18.06
2019-04-07T15:17:14.726Z,18.22
2019-04-07T15:19:51.332Z,18.37
2019-04-07T15:22:29.950Z,18.48
2019-04-07T15:25:07.188Z,18.55
2019-04-07T15:27:42.635Z,18.54
2019-04-07T15:30:18.515Z,18.53
2019-04-07T15:32:57.851Z,18.50
2019-04-07T15:35:31.757Z,18.39
2019-04-07T15:38:07.599Z,18.08
2019-04-07T15:40:44.012Z,17.89
2019-04-07T15:43:21.152Z,17.78
2019-04-07T15:45:57.202Z,17.76
2019-04-07T15:48:34.011Z,17.81
2019-04-07T15:51:09.816Z,17.85
2019-04-07T15:53:50.353Z,17.88
2019-04-07T15:56:23.968Z,17.91
2019-04-07T15:59:02.005Z,17.93
2019-04-07T16:01:39.401Z,17.93
2019-04-07T16:04:15.998Z,17.90
2019-04-07T16:06:52.621Z,17.85
2019-04-07T16:09:36.457Z,17.82
2019-04-07T16:12:06.549Z,17.81
2019-04-07T16:14:46.484Z,17.75
2019-04-07T16:17:21.116Z,17.70
2019-04-07T16:19:57.015Z,17.64
2019-04-07T16:22:33.554Z,17.59
2019-04-07T16:25:11.254Z,17.49
2019-04-07T16:27:47.647Z,17.41
2019-04-07T16:30:23.654Z,17.35
2019-04-07T16:33:01.886Z,17.26
2019-04-07T16:35:36.902Z,17.20
2019-04-07T16:38:13.006Z,17.13
2019-04-07T16:40:50.192Z,17.04
2019-04-07T16:43:26.237Z,16.94
2019-04-07T16:46:02.084Z,16.90
2019-04-07T16:48:40.139Z,16.81
2019-04-07T16:51:15.908Z,16.72
2019-04-07T16:53:54.231Z,16.62
2019-04-07T16:56:30.119Z,16.53
2019-04-07T16:59:08.454Z,16.45
2019-04-07T17:01:43.603Z,16.36
2019-04-07T17:04:20.134Z,16.28
2019-04-07T17:07:03.296Z,16.19
2019-04-07T17:09:35.424Z,16.08
2019-04-07T17:12:12.383Z,15.81
2019-04-07T17:14:49.135Z,15.81
2019-04-07T17:17:26.014Z,15.67
2019-04-07T17:20:01.839Z,15.57
2019-04-07T17:22:37.680Z,15.47
2019-04-07T17:25:14.209Z,15.38
2019-04-07T17:27:50.828Z,15.24
2019-04-07T17:30:28.080Z,15.12
2019-04-07T17:33:05.209Z,14.98
2019-04-07T17:35:44.240Z,14.93
2019-04-07T17:38:21.438Z,14.85
2019-04-07T17:40:57.962Z,14.78
2019-04-07T17:43:51.391Z,14.70
2019-04-07T17:46:26.450Z,14.63
2019-04-07T17:49:04.523Z,14.57
2019-04-07T17:51:42.199Z,14.49
2019-04-07T17:54:23.005Z,14.43
2019-04-07T17:57:12.500Z,14.36
2019-04-07T17:59:50.399Z,14.31
2019-04-07T18:02:34.925Z,14.22
2019-04-07T18:05:15.250Z,14.16
2019-04-07T18:07:52.701Z,14.11
2019-04-07T18:10:30.681Z,14.03
2019-04-07T18:13:22.685Z,13.91
2019-04-07T18:16:06.325Z,13.82
2019-04-07T18:18:44.340Z,13.76
2019-04-07T18:21:39.722Z,13.74
2019-04-07T18:24:18.168Z,13.69
2019-04-07T18:26:55.523Z,13.66
2019-04-07T18:29:36.351Z,13.60
2019-04-07T18:32:14.496Z,13.55
2019-04-07T18:34:52.756Z,13.46
2019-04-07T18:37:31.138Z,13.37
2019-04-07T18:40:27.373Z,13.25
2019-04-07T18:43:20.227Z,13.16
2019-04-07T18:46:01.134Z,13.04
2019-04-07T18:48:50.391Z,12.92
2019-04-07T18:51:47.065Z,12.83
2019-04-07T18:54:22.903Z,12.75
2019-04-07T18:57:10.488Z,12.65
2019-04-07T18:59:59.420Z,12.61
2019-04-07T19:02:34.340Z,12.54
2019-04-07T19:05:23.753Z,12.50
2019-04-07T19:08:19.204Z,12.46
2019-04-07T19:11:12.318Z,12.39
2019-04-07T19:14:14.264Z,12.31
2019-04-07T19:16:49.965Z,12.28
2019-04-07T19:19:42.022Z,12.25
2019-04-07T19:22:28.326Z,12.18
2019-04-07T19:25:12.732Z,12.06
2019-04-07T19:28:04.473Z,11.97
2019-04-07T19:30:51.171Z,11.89
2019-04-07T19:33:35.603Z,11.84
2019-04-07T19:36:31.183Z,11.81
2019-04-07T19:39:11.652Z,11.77
2019-04-07T19:41:51.795Z,11.73
2019-04-07T19:44:39.325Z,11.66
2019-04-07T19:47:20.628Z,11.58
2019-04-07T19:50:05.159Z,11.52
2019-04-07T19:52:51.467Z,11.42
2019-04-07T19:55:38.817Z,11.33
2019-04-07T19:58:38.082Z,11.24
2019-04-07T20:01:20.758Z,11.21
2019-04-07T20:04:04.132Z,11.15
2019-04-07T20:06:59.548Z,11.06
2019-04-07T20:09:45.174Z,11.01
2019-04-07T20:12:22.117Z,10.97
2019-04-07T20:15:06.601Z,10.92
2019-04-07T20:17:55.068Z,10.88
2019-04-07T20:20:49.310Z,10.89
2019-04-07T20:23:35.910Z,10.89
2019-04-07T20:26:22.145Z,10.90
2019-04-07T20:29:04.970Z,10.86
2019-04-07T20:31:47.233Z,10.82
2019-04-07T20:34:25.277Z,10.83
2019-04-07T20:37:02.831Z,10.82
2019-04-07T20:39:58.040Z,10.81
2019-04-07T20:42:36.675Z,10.82
2019-04-07T20:45:18.589Z,10.77
2019-04-07T20:48:12.099Z,10.73
2019-04-07T20:51:05.901Z,10.66
2019-04-07T20:53:43.387Z,10.56
2019-04-07T20:56:37.287Z,10.49
2019-04-07T20:59:18.270Z,10.43
2019-04-07T21:02:07.089Z,10.37
2019-04-07T21:04:41.731Z,10.33
2019-04-07T21:07:31.366Z,10.24
2019-04-07T21:10:18.992Z,10.20
2019-04-07T21:13:00.258Z,10.13
2019-04-07T21:15:43.538Z,10.07
2019-04-07T21:18:24.097Z,10.02
2019-04-07T21:21:01.699Z,9.97
2019-04-07T21:23:39.332Z,9.89
2019-04-07T21:26:17.555Z,9.86
2019-04-07T21:28:58.831Z,9.87
2019-04-07T21:31:39.740Z,9.88
2019-04-07T21:34:17.085Z,9.93
2019-04-07T21:36:54.630Z,9.91
2019-04-07T21:39:48.549Z,9.92
2019-04-07T21:42:35.860Z,9.88
2019-04-07T21:45:32.382Z,9.89
2019-04-07T21:48:05.383Z,9.96
2019-04-07T21:50:48.784Z,10.01
2019-04-07T21:53:29.125Z,10.06
2019-04-07T21:56:10.536Z,10.10
2019-04-07T21:59:04.328Z,10.12
2019-04-07T22:01:59.285Z,10.06
2019-04-07T22:04:55.683Z,9.99
2019-04-07T22:07:35.512Z,9.88
2019-04-07T22:10:13.713Z,9.82
2019-04-07T22:12:49.815Z,9.73
2019-04-07T22:15:26.692Z,9.62
2019-04-07T22:18:07.504Z,9.53
2019-04-07T22:20:40.501Z,9.48
2019-04-07T22:23:16.687Z,9.46
2019-04-07T22:25:53.926Z,9.45
2019-04-07T22:28:30.358Z,9.40
2019-04-07T22:31:08.890Z,9.36
2019-04-07T22:33:45.096Z,9.36
2019-04-07T22:36:20.886Z,9.33
2019-04-07T22:38:59.740Z,9.28
2019-04-07T22:41:34.390Z,9.23
2019-04-07T22:44:11.273Z,9.14
2019-04-07T22:46:49.525Z,9.08
2019-04-07T22:49:28.537Z,9.02
2019-04-07T22:52:03.412Z,8.97
2019-04-07T22:54:40.663Z,8.91
2019-04-07T22:57:17.659Z,8.88
2019-04-07T22:59:54.425Z,8.83
2019-04-07T23:02:30.436Z,8.75
2019-04-07T23:05:07.216Z,8.51
2019-04-07T23:07:43.822Z,8.38
2019-04-07T23:10:19.806Z,8.35
2019-04-07T23:12:55.809Z,8.48
2019-04-07T23:15:41.027Z,8.51
2019-04-07T23:18:09.256Z,8.55
2019-04-07T23:20:45.953Z,8.57
2019-04-07T23:23:21.833Z,8.57
2019-04-07T23:25:57.834Z,8.57
2019-04-07T23:28:34.729Z,8.54
2019-04-07T23:31:11.652Z,8.52
2019-04-07T23:33:47.554Z,8.48
2019-04-07T23:36:24.237Z,8.52
2019-04-07T23:39:00.291Z,8.57
2019-04-07T23:41:37.102Z,8.60
2019-04-07T23:44:13.147Z,8.58
2019-04-07T23:46:48.991Z,8.52
2019-04-07T23:49:25.909Z,8.51
2019-04-07T23:52:02.730Z,8.48
2019-04-07T23:54:39.718Z,8.39
2019-04-07T23:57:15.661Z,8.42
2019-04-07T23:59:51.511Z,8.41
